createdAt,value
2022-11-24T00:00:09.366Z,6.97
2022-11-24T00:03:13.236Z,7.10
2022-11-24T00:06:17.217Z,7.43
2022-11-24T00:09:21.445Z,7.70
2022-11-24T00:12:25.050Z,7.40
2022-11-24T00:15:28.620Z,7.70
2022-11-24T00:18:32.210Z,7.53
2022-11-24T00:21:36.104Z,8.15
2022-11-24T00:24:39.474Z,8.07
2022-11-24T00:27:43.038Z,8.73
2022-11-24T00:30:46.506Z,7.67
2022-11-24T00:33:52.692Z,8.55
2022-11-24T00:36:56.106Z,8.40
2022-11-24T00:39:59.504Z,8.23
2022-11-24T00:43:03.777Z,8.10
2022-11-24T00:46:07.317Z,8.43
2022-11-24T00:49:11.277Z,9.30
2022-11-24T00:52:14.640Z,9.98
2022-11-24T00:55:17.885Z,9.02
2022-11-24T00:58:22.203Z,9.18
2022-11-24T01:01:27.872Z,9.10
2022-11-24T01:04:31.711Z,9.00
2022-11-24T01:07:35.878Z,8.88
2022-11-24T01:10:40.365Z,9.15
2022-11-24T01:13:46.293Z,10.07
2022-11-24T01:16:49.693Z,9.00
2022-11-24T01:19:52.998Z,9.77
2022-11-24T01:22:56.430Z,9.40
2022-11-24T01:25:59.738Z,9.13
2022-11-24T01:29:03.225Z,9.55
2022-11-24T01:32:06.767Z,9.47
2022-11-24T01:35:10.501Z,12.32
2022-11-24T01:38:13.823Z,11.27
2022-11-24T01:41:21.037Z,11.75
2022-11-24T01:44:29.251Z,11.20
2022-11-24T01:47:40.808Z,9.53
2022-11-24T01:50:44.640Z,9.95
2022-11-24T01:53:57.630Z,9.60
2022-11-24T01:57:10.431Z,9.02
2022-11-24T02:00:15.267Z,9.13
2022-11-24T02:03:28.243Z,8.93
2022-11-24T02:06:33.402Z,11.30
2022-11-24T02:09:54.341Z,9.95
2022-11-24T02:12:59.637Z,9.07
2022-11-24T02:16:05.658Z,9.48
2022-11-24T02:19:21.764Z,9.17
2022-11-24T02:22:34.066Z,9.27
2022-11-24T02:26:08.428Z,9.73
2022-11-24T02:29:14.145Z,9.68
2022-11-24T02:32:18.404Z,9.20
2022-11-24T02:35:22.318Z,9.40
2022-11-24T02:38:34.122Z,9.45
2022-11-24T02:41:37.857Z,9.52
2022-11-24T02:44:47.990Z,9.30
2022-11-24T02:47:51.443Z,9.18
2022-11-24T02:50:55.158Z,8.73
2022-11-24T02:53:58.459Z,9.02
2022-11-24T02:57:01.831Z,9.77
2022-11-24T03:00:05.698Z,8.65
2022-11-24T03:03:09.384Z,9.35
2022-11-24T03:06:12.734Z,9.80
2022-11-24T03:09:16.099Z,9.30
2022-11-24T03:12:19.561Z,9.57
2022-11-24T03:15:23.903Z,9.07
2022-11-24T03:18:27.272Z,9.75
2022-11-24T03:21:30.672Z,9.40
2022-11-24T03:24:34.315Z,10.30
2022-11-24T03:27:37.985Z,10.20
2022-11-24T03:30:41.344Z,9.65
2022-11-24T03:33:44.654Z,9.48
2022-11-24T03:36:47.941Z,9.93
2022-11-24T03:39:51.287Z,9.93
2022-11-24T03:42:54.718Z,10.18
2022-11-24T03:45:58.168Z,10.40
2022-11-24T03:49:01.630Z,13.00
2022-11-24T03:52:07.991Z,12.57
2022-11-24T03:55:11.399Z,11.55
2022-11-24T03:58:14.952Z,10.15
2022-11-24T04:01:18.633Z,11.40
2022-11-24T04:04:22.093Z,10.93
2022-11-24T04:07:25.472Z,11.70
2022-11-24T04:10:28.978Z,11.23
2022-11-24T04:13:32.428Z,11.82
2022-11-24T04:16:35.877Z,12.43
2022-11-24T04:19:39.177Z,11.95
2022-11-24T04:22:43.068Z,10.73
2022-11-24T04:25:46.504Z,10.80
2022-11-24T04:28:49.955Z,12.10
2022-11-24T04:31:53.300Z,12.98
2022-11-24T04:34:56.675Z,12.05
2022-11-24T04:38:03.221Z,12.13
2022-11-24T04:41:06.688Z,11.27
2022-11-24T04:44:10.023Z,11.75
2022-11-24T04:47:21.830Z,12.10
2022-11-24T04:50:25.359Z,11.98
2022-11-24T04:53:28.634Z,11.43
2022-11-24T04:56:32.005Z,10.75
2022-11-24T04:59:35.462Z,11.82
2022-11-24T05:02:38.871Z,11.63
2022-11-24T05:05:50.685Z,10.60
2022-11-24T05:08:54.084Z,11.20
2022-11-24T05:11:57.623Z,11.10
2022-11-24T05:15:05.615Z,10.82
2022-11-24T05:18:17.927Z,10.40
2022-11-24T05:21:21.306Z,11.02
2022-11-24T05:24:24.661Z,11.07
2022-11-24T05:27:28.086Z,10.38
2022-11-24T05:30:32.431Z,11.02
2022-11-24T05:33:37.102Z,11.15
2022-11-24T05:36:53.021Z,10.80
2022-11-24T05:39:56.478Z,10.53
2022-11-24T05:42:59.924Z,11.15
2022-11-24T05:46:03.470Z,11.50
2022-11-24T05:49:06.878Z,12.30
2022-11-24T05:52:10.791Z,12.57
2022-11-24T05:55:15.332Z,12.00
2022-11-24T05:58:18.824Z,11.13
2022-11-24T06:01:22.270Z,12.18
2022-11-24T06:04:25.618Z,12.90
2022-11-24T06:07:29.103Z,16.38
2022-11-24T06:10:32.648Z,14.97
2022-11-24T06:13:36.314Z,13.93
2022-11-24T06:16:40.149Z,13.65
2022-11-24T06:19:46.666Z,14.27
2022-11-24T06:22:50.420Z,15.02
2022-11-24T06:25:53.799Z,13.27
2022-11-24T06:28:57.265Z,12.85
2022-11-24T06:32:00.660Z,12.10
2022-11-24T06:35:04.976Z,12.20
2022-11-24T06:38:08.676Z,12.40
2022-11-24T06:41:16.461Z,12.83
2022-11-24T06:44:20.287Z,16.17
2022-11-24T06:47:23.702Z,18.13
2022-11-24T06:50:33.557Z,25.05
2022-11-24T06:53:39.197Z,19.80
2022-11-24T06:56:42.707Z,8.20
2022-11-24T06:59:46.644Z,8.10
2022-11-24T07:02:50.380Z,6.78
2022-11-24T07:06:00.531Z,4.95
2022-11-24T07:09:04.015Z,3.85
2022-11-24T07:12:07.728Z,5.67
2022-11-24T07:15:11.593Z,9.27
2022-11-24T07:18:15.528Z,9.35
2022-11-24T07:21:21.052Z,10.23
2022-11-24T07:24:24.471Z,7.07
2022-11-24T07:27:28.547Z,5.00
2022-11-24T07:30:32.171Z,4.10
2022-11-24T07:33:36.217Z,3.25
2022-11-24T07:36:39.634Z,4.38
2022-11-24T07:39:43.269Z,4.63
2022-11-24T07:42:46.748Z,4.37
2022-11-24T07:45:53.467Z,4.50
2022-11-24T07:48:56.921Z,4.65
2022-11-24T07:52:01.141Z,4.88
2022-11-24T07:55:05.675Z,5.80
2022-11-24T07:58:09.161Z,4.73
2022-11-24T08:01:17.964Z,5.72
2022-11-24T08:04:21.556Z,5.78
2022-11-24T08:07:25.058Z,5.07
2022-11-24T08:10:28.479Z,3.90
2022-11-24T08:13:31.784Z,5.63
2022-11-24T08:16:35.191Z,4.53
2022-11-24T08:19:39.445Z,4.07
2022-11-24T08:22:43.090Z,3.92
2022-11-24T08:25:46.400Z,5.00
2022-11-24T08:28:54.837Z,5.00
2022-11-24T08:31:58.945Z,5.53
2022-11-24T08:35:14.054Z,4.13
2022-11-24T08:38:17.863Z,3.40
2022-11-24T08:41:21.277Z,3.90
2022-11-24T08:44:25.242Z,3.97
2022-11-24T08:47:29.315Z,4.50
2022-11-24T08:50:35.655Z,4.65
2022-11-24T08:53:40.251Z,4.90
2022-11-24T08:56:43.698Z,11.18
2022-11-24T08:59:47.461Z,11.57
2022-11-24T09:02:57.102Z,11.70
2022-11-24T09:06:00.689Z,12.40
2022-11-24T09:09:04.204Z,14.02
2022-11-24T09:12:14.351Z,14.82
2022-11-24T09:15:20.389Z,13.80
2022-11-24T09:18:28.856Z,14.80
2022-11-24T09:21:38.046Z,15.93
2022-11-24T09:24:41.740Z,14.85
2022-11-24T09:27:45.232Z,13.27
2022-11-24T09:30:48.744Z,13.33
2022-11-24T09:33:53.533Z,13.45
2022-11-24T09:36:58.818Z,13.35
2022-11-24T09:40:02.188Z,13.05
2022-11-24T09:43:34.143Z,13.23
2022-11-24T09:46:56.145Z,13.00
2022-11-24T09:50:13.102Z,13.63
2022-11-24T09:53:29.734Z,15.43
2022-11-24T09:56:38.312Z,15.18
2022-11-24T09:59:42.331Z,16.35
2022-11-24T10:02:48.624Z,15.20
2022-11-24T10:05:55.032Z,15.02
2022-11-24T10:09:29.073Z,15.23
2022-11-24T10:13:00.968Z,13.52
2022-11-24T10:16:09.400Z,15.30
2022-11-24T10:19:37.156Z,16.80
2022-11-24T10:22:40.980Z,16.48
2022-11-24T10:26:00.559Z,15.65
2022-11-24T10:29:16.499Z,15.48
2022-11-24T10:32:26.726Z,16.13
2022-11-24T10:35:45.484Z,16.87
2022-11-24T10:38:59.671Z,15.77
2022-11-24T10:42:12.000Z,15.20
2022-11-24T10:45:18.559Z,15.30
2022-11-24T10:48:37.098Z,15.07
2022-11-24T10:52:06.033Z,14.13
2022-11-24T10:55:10.120Z,15.10
2022-11-24T10:58:17.733Z,15.82
2022-11-24T11:01:32.239Z,15.05
2022-11-24T11:04:36.803Z,16.33
2022-11-24T11:07:40.292Z,14.77
2022-11-24T11:10:45.118Z,15.43
2022-11-24T11:14:01.533Z,15.48
2022-11-24T11:17:45.837Z,15.35
2022-11-24T11:20:57.075Z,14.55
2022-11-24T11:24:02.411Z,15.20
2022-11-24T11:27:18.143Z,14.90
2022-11-24T11:34:06.426Z,15.45
2022-11-24T11:37:14.859Z,15.30
2022-11-24T11:40:24.147Z,14.90
2022-11-24T11:43:34.991Z,15.05
2022-11-24T11:46:38.470Z,16.42
2022-11-24T11:49:42.298Z,15.40
2022-11-24T11:53:33.217Z,16.77
2022-11-24T11:56:45.312Z,15.60
2022-11-24T12:00:07.982Z,15.82
2022-11-24T12:03:29.988Z,15.48
2022-11-24T12:06:58.935Z,16.73
2022-11-24T12:10:21.095Z,16.45
2022-11-24T12:13:36.572Z,20.57
2022-11-24T12:16:45.800Z,16.33
2022-11-24T12:20:23.223Z,14.63
2022-11-24T12:23:44.915Z,13.20
2022-11-24T12:27:23.192Z,13.85
2022-11-24T12:30:36.895Z,13.90
2022-11-24T12:34:19.223Z,14.35
2022-11-24T12:37:28.646Z,17.35
2022-11-24T12:41:33.797Z,14.88
2022-11-24T12:45:06.235Z,15.30
2022-11-24T12:48:25.036Z,14.00
2022-11-24T12:51:34.614Z,14.85
2022-11-24T12:54:41.151Z,14.18
2022-11-24T12:58:11.078Z,14.15
2022-11-24T13:01:30.238Z,14.35
2022-11-24T13:04:42.294Z,14.43
2022-11-24T13:07:56.237Z,15.32
2022-11-24T13:11:21.564Z,14.30
2022-11-24T13:14:38.214Z,11.80
2022-11-24T13:18:01.414Z,11.88
2022-11-24T13:21:25.394Z,11.97
2022-11-24T13:24:36.342Z,11.68
2022-11-24T13:27:42.857Z,12.20
2022-11-24T13:30:46.219Z,11.55
2022-11-24T13:33:49.849Z,12.77
2022-11-24T13:36:54.466Z,11.57
2022-11-24T13:40:04.753Z,12.45
2022-11-24T13:43:10.864Z,12.57
2022-11-24T13:46:14.246Z,11.15
2022-11-24T13:49:21.537Z,12.10
2022-11-24T13:52:39.951Z,12.00
2022-11-24T13:56:00.675Z,11.00
2022-11-24T13:59:30.954Z,11.63
2022-11-24T14:02:34.775Z,11.65
2022-11-24T14:05:44.458Z,11.35
2022-11-24T14:08:49.080Z,10.53
2022-11-24T14:12:18.004Z,10.20
2022-11-24T14:15:29.524Z,11.02
2022-11-24T14:18:34.260Z,9.60
2022-11-24T14:21:44.404Z,9.23
2022-11-24T14:25:20.056Z,10.03
2022-11-24T14:28:26.120Z,10.70
2022-11-24T14:31:29.757Z,11.40
2022-11-24T14:34:36.343Z,11.32
2022-11-24T14:37:40.004Z,8.82
2022-11-24T14:40:54.824Z,10.00
2022-11-24T14:44:18.141Z,11.35
2022-11-24T14:47:30.890Z,11.18
2022-11-24T14:50:35.599Z,12.15
2022-11-24T14:53:43.212Z,16.02
2022-11-24T14:57:01.182Z,13.77
2022-11-24T15:00:29.708Z,13.40
2022-11-24T15:03:33.535Z,13.02
2022-11-24T15:06:37.088Z,12.77
2022-11-24T15:09:43.216Z,13.13
2022-11-24T15:12:54.690Z,13.57
2022-11-24T15:16:03.439Z,13.27
2022-11-24T15:19:15.988Z,12.38
2022-11-24T15:22:40.836Z,13.70
2022-11-24T15:25:44.338Z,13.48
2022-11-24T15:28:47.880Z,13.03
2022-11-24T15:31:52.986Z,12.85
2022-11-24T15:34:56.603Z,12.88
2022-11-24T15:38:00.032Z,12.35
2022-11-24T15:41:14.010Z,12.77
2022-11-24T15:44:17.366Z,14.80
2022-11-24T15:47:20.706Z,14.65
2022-11-24T15:50:24.247Z,13.20
2022-11-24T15:53:54.109Z,12.35
2022-11-24T15:57:00.556Z,10.75
2022-11-24T16:00:04.443Z,11.90
2022-11-24T16:03:45.710Z,11.82
2022-11-24T16:06:38.795Z,20.55
2022-11-24T16:09:42.151Z,14.80
2022-11-24T16:12:45.496Z,15.60
2022-11-24T16:15:48.835Z,13.03
2022-11-24T16:18:52.569Z,13.80
2022-11-24T16:21:56.165Z,12.55
2022-11-24T16:24:59.694Z,11.75
2022-11-24T16:28:03.026Z,13.32
2022-11-24T16:31:06.929Z,11.33
2022-11-24T16:34:10.455Z,10.82
2022-11-24T16:37:13.993Z,11.48
2022-11-24T16:40:18.342Z,12.35
2022-11-24T16:43:22.120Z,11.70
2022-11-24T16:46:26.146Z,11.00
2022-11-24T16:49:29.606Z,11.77
2022-11-24T16:52:33.048Z,15.40
2022-11-24T16:55:36.507Z,18.17
2022-11-24T16:58:41.261Z,17.17
2022-11-24T17:01:46.666Z,17.43
2022-11-24T17:04:52.542Z,13.80
2022-11-24T17:07:55.996Z,12.85
2022-11-24T17:11:06.637Z,13.48
2022-11-24T17:14:11.383Z,14.60
2022-11-24T17:17:14.724Z,11.80
2022-11-24T17:20:18.471Z,12.90
2022-11-24T17:23:22.074Z,13.15
2022-11-24T17:26:26.523Z,12.38
2022-11-24T17:29:30.187Z,12.05
2022-11-24T17:32:33.817Z,13.07
2022-11-24T17:35:37.793Z,12.65
2022-11-24T17:38:41.531Z,13.57
2022-11-24T17:41:45.433Z,12.25
2022-11-24T17:44:49.216Z,14.07
2022-11-24T17:47:52.954Z,14.10
2022-11-24T17:51:17.589Z,12.05
2022-11-24T17:54:45.237Z,11.57
2022-11-24T17:57:45.337Z,11.65
2022-11-24T18:00:51.721Z,12.23
2022-11-24T18:03:55.440Z,16.23
2022-11-24T18:06:59.131Z,15.73
2022-11-24T18:10:03.357Z,17.10
2022-11-24T18:13:07.039Z,11.32
2022-11-24T18:16:16.860Z,12.80
2022-11-24T18:19:21.561Z,13.47
2022-11-24T18:22:50.156Z,11.50
2022-11-24T18:25:56.151Z,13.48
2022-11-24T18:28:59.908Z,12.27
2022-11-24T18:32:03.803Z,12.45
2022-11-24T18:35:07.823Z,13.50
2022-11-24T18:38:12.123Z,15.23
2022-11-24T18:41:16.239Z,14.52
2022-11-24T18:44:19.735Z,15.43
2022-11-24T18:47:23.637Z,15.88
2022-11-24T18:50:27.376Z,18.00
2022-11-24T18:53:31.175Z,14.93
2022-11-24T18:56:34.529Z,14.43
2022-11-24T18:59:37.942Z,13.07
2022-11-24T19:02:41.868Z,13.90
2022-11-24T19:05:46.199Z,12.13
2022-11-24T19:08:53.618Z,11.27
2022-11-24T19:11:57.457Z,10.90
2022-11-24T19:15:01.143Z,10.57
2022-11-24T19:18:05.141Z,14.32
2022-11-24T19:21:09.439Z,13.63
2022-11-24T19:24:13.632Z,13.60
2022-11-24T19:27:18.638Z,14.55
2022-11-24T19:30:22.491Z,11.80
2022-11-24T19:33:26.130Z,11.85
2022-11-24T19:36:31.050Z,13.00
2022-11-24T19:39:34.484Z,12.63
2022-11-24T19:42:38.172Z,11.38
2022-11-24T19:45:44.409Z,11.05
2022-11-24T19:48:59.059Z,12.38
2022-11-24T19:52:02.808Z,11.10
2022-11-24T19:55:06.840Z,11.57
2022-11-24T19:58:10.355Z,13.85
2022-11-24T20:01:14.184Z,13.93
2022-11-24T20:04:18.515Z,15.30
2022-11-24T20:07:22.318Z,12.93
2022-11-24T20:10:26.154Z,12.40
2022-11-24T20:13:29.937Z,12.13
2022-11-24T20:16:35.331Z,11.00
2022-11-24T20:19:39.315Z,10.07
2022-11-24T20:22:42.964Z,9.43
2022-11-24T20:25:46.613Z,9.05
2022-11-24T20:28:51.758Z,9.20
2022-11-24T20:31:56.522Z,9.00
2022-11-24T20:35:01.793Z,10.13
2022-11-24T20:38:10.218Z,9.10
2022-11-24T20:41:25.128Z,8.75
2022-11-24T20:44:29.980Z,9.15
2022-11-24T20:47:33.449Z,10.75
2022-11-24T20:50:38.306Z,10.23
2022-11-24T20:53:42.647Z,10.03
2022-11-24T20:56:46.841Z,11.35
2022-11-24T20:59:52.420Z,9.80
2022-11-24T21:02:57.742Z,9.25
2022-11-24T21:06:02.363Z,9.02
2022-11-24T21:09:08.025Z,9.07
2022-11-24T21:12:11.529Z,9.25
2022-11-24T21:15:15.163Z,10.18
2022-11-24T21:18:19.298Z,12.27
2022-11-24T21:21:24.127Z,12.73
2022-11-24T21:24:31.003Z,11.43
2022-11-24T21:27:34.658Z,11.02
2022-11-24T21:30:38.270Z,9.93
2022-11-24T21:33:46.441Z,10.43
2022-11-24T21:36:49.976Z,10.43
2022-11-24T21:39:53.445Z,11.90
2022-11-24T21:42:59.574Z,13.07
2022-11-24T21:46:12.060Z,17.15
2022-11-24T21:49:16.066Z,15.65
2022-11-24T21:52:19.458Z,11.20
2022-11-24T21:55:22.934Z,10.60
2022-11-24T21:58:27.819Z,10.85
2022-11-24T22:01:31.312Z,11.68
2022-11-24T22:04:35.003Z,11.60
2022-11-24T22:07:38.797Z,11.07
2022-11-24T22:10:42.158Z,11.18
2022-11-24T22:13:45.818Z,10.73
2022-11-24T22:16:49.311Z,9.80
2022-11-24T22:19:52.724Z,10.00
2022-11-24T22:22:56.179Z,9.70
2022-11-24T22:26:29.099Z,9.73
2022-11-24T22:29:32.474Z,10.32
2022-11-24T22:32:36.114Z,9.82
2022-11-24T22:35:39.439Z,11.27
2022-11-24T22:38:43.706Z,10.20
2022-11-24T22:41:47.384Z,10.27
2022-11-24T22:44:50.751Z,9.90
2022-11-24T22:47:56.988Z,9.77
2022-11-24T22:51:08.824Z,9.63
2022-11-24T22:54:14.118Z,10.03
2022-11-24T22:57:17.536Z,10.40
2022-11-24T23:00:21.206Z,9.82
2022-11-24T23:03:24.677Z,9.73
2022-11-24T23:06:31.000Z,9.98
2022-11-24T23:09:34.481Z,10.43
2022-11-24T23:12:37.897Z,9.90
2022-11-24T23:15:41.331Z,10.07
2022-11-24T23:18:51.062Z,9.00
2022-11-24T23:21:57.161Z,9.52
2022-11-24T23:25:00.571Z,9.43
2022-11-24T23:28:04.100Z,9.68
2022-11-24T23:31:13.360Z,8.55
2022-11-24T23:34:16.677Z,9.32
2022-11-24T23:37:20.076Z,9.15
2022-11-24T23:40:23.611Z,8.90
2022-11-24T23:43:27.146Z,8.85
2022-11-24T23:46:31.114Z,10.63
2022-11-24T23:49:34.537Z,10.50
2022-11-24T23:52:37.977Z,9.87
2022-11-24T23:55:41.311Z,9.70
2022-11-24T23:58:45.204Z,10.00
